Time;durP1;ratioP1;P1;durP2;ratioP2;P2;SDS_P1;SDS_P2;PMS_P1;PMS_P2;Temp;Humidity;BMP_temperature;BMP_pressure;BME280_temperature;BME280_humidity;BME280_pressure;Samples;Min_cycle;Max_cycle;Signal;HPM_P1;HPM_P2
2021/01/28 00:00:16;;;;;;;182.65;47.17;;;7.80;99.90;;;;;;5049672;28;20021;-74
2021/01/28 00:02:42;;;;;;;186.45;47.15;;;7.90;99.90;;;;;;5043947;28;20033;-74
2021/01/28 00:05:08;;;;;;;186.85;45.22;;;7.90;99.90;;;;;;5031422;28;20025;-74
2021/01/28 00:07:34;;;;;;;255.35;51.17;;;7.90;99.90;;;;;;5047188;28;20114;-73
2021/01/28 00:10:00;;;;;;;173.38;44.75;;;7.90;99.90;;;;;;5028804;28;20516;-74
2021/01/28 00:12:26;;;;;;;213.35;48.35;;;7.90;99.90;;;;;;5041761;28;20029;-74
2021/01/28 00:14:51;;;;;;;182.43;43.63;;;7.90;99.90;;;;;;5028709;28;20049;-74
2021/01/28 00:17:17;;;;;;;173.95;41.05;;;7.90;99.90;;;;;;5044562;28;20096;-74
2021/01/28 00:19:43;;;;;;;150.85;42.25;;;7.90;99.90;;;;;;5032088;28;20029;-74
2021/01/28 00:22:08;;;;;;;186.48;43.92;;;7.90;99.90;;;;;;5038544;28;20424;-74
2021/01/28 00:24:34;;;;;;;214.13;46.38;;;7.90;99.90;;;;;;5046533;28;20561;-74
2021/01/28 00:27:00;;;;;;;155.88;40.78;;;7.90;99.90;;;;;;5046404;28;20053;-74
2021/01/28 00:29:25;;;;;;;187.93;46.03;;;7.90;99.90;;;;;;5042716;28;20061;-74
2021/01/28 00:31:52;;;;;;;185.25;43.28;;;8.00;99.90;;;;;;5046588;28;20018;-74
2021/01/28 00:34:17;;;;;;;194.65;44.67;;;7.90;99.90;;;;;;5039717;28;20116;-74
2021/01/28 00:36:43;;;;;;;163.25;41.10;;;7.90;99.90;;;;;;5047910;28;20435;-74
2021/01/28 00:39:09;;;;;;;206.85;48.30;;;8.00;99.90;;;;;;5045447;28;20021;-74
2021/01/28 00:41:34;;;;;;;220.23;49.80;;;8.00;99.90;;;;;;5046617;28;20041;-74
2021/01/28 00:44:00;;;;;;;183.63;45.20;;;7.90;99.90;;;;;;5040635;28;20559;-73
2021/01/28 00:46:26;;;;;;;167.63;43.72;;;7.90;99.90;;;;;;5039591;28;20075;-74
2021/01/28 00:48:51;;;;;;;164.20;41.80;;;7.90;99.90;;;;;;5040470;28;20065;-74
2021/01/28 00:51:17;;;;;;;171.23;43.40;;;8.00;99.90;;;;;;5046800;28;20020;-73
2021/01/28 00:53:43;;;;;;;191.00;43.70;;;7.90;99.90;;;;;;5029900;28;20047;-74
2021/01/28 00:56:09;;;;;;;180.57;43.38;;;7.90;99.90;;;;;;5042609;28;20036;-74
2021/01/28 00:58:35;;;;;;;188.43;44.90;;;7.80;99.90;;;;;;5028925;28;20025;-74
2021/01/28 01:01:01;;;;;;;162.38;43.05;;;7.90;99.90;;;;;;5030884;28;20496;-74
2021/01/28 01:03:28;;;;;;;153.43;41.33;;;7.90;99.90;;;;;;5045726;28;20432;-74
2021/01/28 01:05:55;;;;;;;166.93;41.05;;;7.90;99.90;;;;;;5044181;28;20029;-74
2021/01/28 01:08:27;;;;;;;185.13;41.97;;;7.90;99.90;;;;;;5044735;28;20017;-73
2021/01/28 01:10:55;;;;;;;213.45;45.53;;;7.80;99.90;;;;;;5044261;28;21445;-74
2021/01/28 01:13:24;;;;;;;185.77;41.08;;;7.80;99.90;;;;;;5044278;28;20377;-74
2021/01/28 01:15:50;;;;;;;201.68;42.17;;;7.90;99.90;;;;;;5032413;28;20032;-73
2021/01/28 01:18:18;;;;;;;241.00;45.97;;;7.80;99.90;;;;;;5041945;28;20063;-74
2021/01/28 01:20:45;;;;;;;176.23;41.25;;;7.80;99.90;;;;;;5048381;28;20095;-73
2021/01/28 01:23:11;;;;;;;175.35;41.70;;;7.80;99.90;;;;;;5051696;28;20025;-73
2021/01/28 01:25:37;;;;;;;152.00;38.85;;;7.80;99.90;;;;;;5052239;28;20036;-74
2021/01/28 01:28:03;;;;;;;164.80;39.45;;;7.80;99.90;;;;;;5051065;28;20032;-74
2021/01/28 01:30:30;;;;;;;165.43;42.70;;;7.90;99.90;;;;;;5048828;28;20041;-74
2021/01/28 01:32:56;;;;;;;184.80;41.72;;;7.90;99.90;;;;;;5048303;28;20032;-73
2021/01/28 01:35:23;;;;;;;245.48;46.88;;;7.80;99.90;;;;;;5053460;28;20037;-73
2021/01/28 01:37:51;;;;;;;215.35;44.83;;;7.80;99.90;;;;;;5035688;28;20125;-74
2021/01/28 01:40:24;;;;;;;209.32;44.58;;;7.80;99.90;;;;;;5036910;28;20028;-74
2021/01/28 01:42:51;;;;;;;186.02;43.90;;;7.80;99.90;;;;;;5048557;28;20053;-73
2021/01/28 01:45:29;;;;;;;235.70;47.83;;;7.80;99.90;;;;;;5046338;28;20044;-74
2021/01/28 01:48:02;;;;;;;170.48;41.15;;;7.80;99.90;;;;;;5052366;28;20112;-74
2021/01/28 01:50:45;;;;;;;221.15;46.95;;;7.80;99.90;;;;;;5052346;28;20059;-74
2021/01/28 01:53:17;;;;;;;163.02;39.75;;;7.80;99.90;;;;;;5049947;28;20481;-74
2021/01/28 01:55:46;;;;;;;218.20;46.50;;;7.80;99.90;;;;;;5032257;28;20101;-74
2021/01/28 01:58:20;;;;;;;179.68;42.33;;;7.90;99.90;;;;;;5035267;28;20033;-73
2021/01/28 02:00:47;;;;;;;204.98;45.05;;;7.90;99.90;;;;;;5052878;28;20021;-73
2021/01/28 02:03:12;;;;;;;140.27;38.17;;;7.80;99.90;;;;;;5049958;28;20061;-73
2021/01/28 02:05:42;;;;;;;192.15;43.65;;;7.80;99.90;;;;;;5051040;28;20053;-73
2021/01/28 02:08:13;;;;;;;179.02;41.70;;;7.80;99.90;;;;;;5045449;28;20097;-73
2021/01/28 02:10:38;;;;;;;154.70;39.95;;;7.80;99.90;;;;;;5049864;28;20036;-73
2021/01/28 02:13:04;;;;;;;158.98;41.70;;;7.80;99.90;;;;;;5051912;28;20043;-73
2021/01/28 02:15:30;;;;;;;178.15;41.78;;;7.80;99.90;;;;;;5032685;28;20172;-73
2021/01/28 02:17:58;;;;;;;155.35;39.53;;;7.70;99.90;;;;;;5049484;28;20033;-73
2021/01/28 02:20:46;;;;;;;139.32;37.63;;;7.80;99.90;;;;;;5044183;28;20036;-73
2021/01/28 02:23:51;;;;;;;157.32;39.70;;;7.80;99.90;;;;;;5051850;28;20159;-73
2021/01/28 02:26:17;;;;;;;171.50;41.17;;;7.80;99.90;;;;;;5037910;28;20047;-73
2021/01/28 02:28:43;;;;;;;146.95;38.22;;;7.80;99.90;;;;;;5047495;28;20079;-73
2021/01/28 02:31:10;;;;;;;150.60;39.97;;;7.80;99.90;;;;;;5042294;28;20493;-73
2021/01/28 02:33:41;;;;;;;186.35;41.60;;;7.80;99.90;;;;;;5047968;28;20025;-73
2021/01/28 02:36:07;;;;;;;127.10;37.90;;;7.80;99.90;;;;;;5041822;28;20033;-73
2021/01/28 02:38:33;;;;;;;125.88;36.90;;;7.80;99.90;;;;;;5031679;28;20385;-73
2021/01/28 02:40:59;;;;;;;110.30;34.38;;;7.80;99.90;;;;;;5042187;28;20486;-73
2021/01/28 02:43:25;;;;;;;101.85;33.25;;;7.80;99.90;;;;;;5048786;28;20029;-73
2021/01/28 02:46:05;;;;;;;102.40;32.53;;;7.80;99.90;;;;;;5050793;28;20033;-73
2021/01/28 02:48:30;;;;;;;133.00;36.83;;;7.80;99.90;;;;;;5045040;28;20020;-73
2021/01/28 02:50:56;;;;;;;131.05;36.83;;;7.80;99.90;;;;;;5046741;28;20086;-73
2021/01/28 02:53:22;;;;;;;94.07;30.60;;;7.80;99.90;;;;;;5050585;28;20021;-74
2021/01/28 02:55:48;;;;;;;112.43;35.88;;;7.80;99.90;;;;;;5052066;28;20029;-74
2021/01/28 02:58:13;;;;;;;119.53;34.67;;;7.80;99.90;;;;;;5033926;28;20489;-73
2021/01/28 03:00:39;;;;;;;102.53;31.35;;;7.90;99.90;;;;;;5045062;28;20469;-73
2021/01/28 03:03:06;;;;;;;111.03;32.65;;;7.80;99.90;;;;;;5025853;28;20394;-74
2021/01/28 03:05:31;;;;;;;93.22;31.88;;;7.90;99.90;;;;;;5047258;28;20096;-74
2021/01/28 03:07:57;;;;;;;92.50;29.92;;;7.80;99.90;;;;;;5030629;28;20033;-73
2021/01/28 03:10:23;;;;;;;108.57;32.08;;;7.80;99.90;;;;;;5047137;28;20108;-74
2021/01/28 03:12:49;;;;;;;85.70;28.90;;;7.70;99.90;;;;;;5041705;28;20028;-73
2021/01/28 03:15:18;;;;;;;131.68;34.08;;;7.70;99.90;;;;;;5051177;28;20083;-73
2021/01/28 03:17:44;;;;;;;84.65;28.77;;;7.80;99.90;;;;;;5052594;28;20389;-73
2021/01/28 03:20:11;;;;;;;96.75;30.65;;;7.80;99.90;;;;;;5043547;28;20017;-74
2021/01/28 03:22:39;;;;;;;87.95;28.45;;;7.90;99.90;;;;;;5044061;28;20025;-74
2021/01/28 03:25:06;;;;;;;99.38;30.02;;;7.80;99.90;;;;;;5042567;28;20074;-73
2021/01/28 03:27:32;;;;;;;84.18;26.98;;;7.80;99.90;;;;;;5029082;28;20116;-73
2021/01/28 03:29:58;;;;;;;85.70;27.67;;;7.80;99.90;;;;;;5048707;28;20119;-73
2021/01/28 03:32:24;;;;;;;78.93;26.50;;;7.70;99.90;;;;;;5042830;28;20449;-73
2021/01/28 03:34:50;;;;;;;85.07;26.05;;;7.80;99.90;;;;;;5049673;28;20040;-74
2021/01/28 03:37:16;;;;;;;69.90;24.58;;;7.80;99.90;;;;;;5050728;28;20013;-73
2021/01/28 03:39:42;;;;;;;124.50;30.65;;;7.80;99.90;;;;;;5047323;28;20088;-73
2021/01/28 03:42:07;;;;;;;85.05;26.50;;;7.80;99.90;;;;;;5045719;28;20132;-73
2021/01/28 03:44:33;;;;;;;65.97;23.60;;;7.80;99.90;;;;;;5046113;28;20086;-73
2021/01/28 03:46:59;;;;;;;80.00;26.27;;;7.80;99.90;;;;;;5050572;28;20075;-72
2021/01/28 03:49:24;;;;;;;89.13;27.13;;;7.70;99.90;;;;;;5045772;28;20041;-73
2021/01/28 03:51:50;;;;;;;81.32;25.35;;;7.80;99.90;;;;;;5046657;28;20032;-73
2021/01/28 03:54:16;;;;;;;121.15;28.85;;;7.90;99.90;;;;;;5051342;28;20064;-72
2021/01/28 03:56:41;;;;;;;69.07;23.50;;;7.80;99.90;;;;;;5048350;28;20017;-72
2021/01/28 03:59:07;;;;;;;81.13;23.88;;;7.80;99.90;;;;;;5040313;28;20469;-72
2021/01/28 04:01:33;;;;;;;72.22;24.48;;;7.80;99.90;;;;;;5043562;28;20116;-72
2021/01/28 04:03:59;;;;;;;91.47;26.00;;;7.80;99.90;;;;;;5049713;28;20100;-72
2021/01/28 04:06:24;;;;;;;70.70;23.60;;;7.80;99.90;;;;;;5045251;28;20116;-72
2021/01/28 04:08:50;;;;;;;62.42;21.48;;;7.80;99.90;;;;;;5047643;28;20037;-72
2021/01/28 04:11:16;;;;;;;51.30;20.20;;;7.80;99.90;;;;;;5044900;28;20033;-73
2021/01/28 04:13:41;;;;;;;64.18;23.38;;;7.70;99.90;;;;;;5049408;28;20036;-73
2021/01/28 04:16:07;;;;;;;70.13;22.08;;;7.70;99.90;;;;;;5049028;28;20025;-73
2021/01/28 04:18:33;;;;;;;49.08;18.65;;;7.60;99.90;;;;;;5040706;28;20030;-73
2021/01/28 04:20:58;;;;;;;55.95;20.48;;;7.60;99.90;;;;;;5039993;28;20030;-73
2021/01/28 04:23:24;;;;;;;55.17;20.23;;;7.60;99.90;;;;;;5048114;28;20025;-73
2021/01/28 04:25:50;;;;;;;44.08;17.45;;;7.60;99.90;;;;;;5048580;28;20480;-73
2021/01/28 04:28:15;;;;;;;37.78;17.88;;;7.60;99.90;;;;;;5044088;28;20448;-73
2021/01/28 04:30:41;;;;;;;41.35;16.83;;;7.60;99.90;;;;;;5051359;28;20037;-73
2021/01/28 04:33:08;;;;;;;40.80;17.00;;;7.60;99.90;;;;;;5047356;28;20088;-72
2021/01/28 04:35:33;;;;;;;44.03;18.08;;;7.50;99.90;;;;;;5047344;28;20036;-73
2021/01/28 04:37:59;;;;;;;40.35;18.00;;;7.60;99.90;;;;;;5046666;28;20087;-72
2021/01/28 04:40:36;;;;;;;33.05;15.75;;;7.60;99.90;;;;;;5048848;28;20374;-72
2021/01/28 04:43:25;;;;;;;39.15;16.27;;;7.60;99.90;;;;;;5044007;28;20040;-72
2021/01/28 04:45:54;;;;;;;47.28;17.85;;;7.50;99.90;;;;;;5040227;28;20045;-72
2021/01/28 04:48:21;;;;;;;44.58;17.35;;;7.60;99.90;;;;;;5051019;28;20024;-73
2021/01/28 04:50:48;;;;;;;38.67;17.73;;;7.60;99.90;;;;;;5050103;28;20075;-72
2021/01/28 04:53:31;;;;;;;36.58;15.75;;;7.60;99.90;;;;;;5049676;28;20029;-72
2021/01/28 04:56:01;;;;;;;49.63;19.48;;;7.60;99.90;;;;;;5053405;28;20029;-72
2021/01/28 04:58:27;;;;;;;45.72;17.95;;;7.60;99.90;;;;;;5050747;28;20390;-73
2021/01/28 05:00:52;;;;;;;44.70;18.30;;;7.70;99.90;;;;;;5048038;28;20025;-72
2021/01/28 05:03:35;;;;;;;47.42;17.95;;;7.60;99.90;;;;;;5051579;28;20037;-72
2021/01/28 05:06:01;;;;;;;;;;;7.60;99.90;;;;;;5052742;28;20033;-72
2021/01/28 05:08:27;;;;;;;47.40;17.52;;;7.60;99.90;;;;;;5050817;28;19988;-72
2021/01/28 05:10:55;;;;;;;39.45;18.42;;;7.60;99.90;;;;;;5053473;28;20055;-73
2021/01/28 05:13:31;;;;;;;48.42;19.52;;;7.60;99.90;;;;;;5049416;28;20116;-72
2021/01/28 05:16:16;;;;;;;42.50;18.45;;;7.60;99.90;;;;;;5028852;28;20079;-72
2021/01/28 05:18:42;;;;;;;35.80;16.40;;;7.50;99.90;;;;;;5046986;28;20024;-72
2021/01/28 05:21:23;;;;;;;43.30;18.00;;;7.50;99.90;;;;;;5046099;28;20141;-72
2021/01/28 05:23:58;;;;;;;53.20;18.95;;;7.50;99.90;;;;;;5048127;28;20105;-72
2021/01/28 05:26:34;;;;;;;39.60;16.90;;;7.50;99.90;;;;;;5049714;28;20052;-72
2021/01/28 05:29:18;;;;;;;44.67;17.52;;;7.50;99.90;;;;;;5053138;28;20032;-72
2021/01/28 05:31:44;;;;;;;37.53;16.77;;;7.50;99.90;;;;;;5052681;28;20480;-72
2021/01/28 05:34:13;;;;;;;48.67;17.70;;;7.50;99.90;;;;;;5029191;28;20472;-72
2021/01/28 05:36:50;;;;;;;42.78;18.52;;;7.50;99.90;;;;;;5046188;28;20385;-72
2021/01/28 05:39:37;;;;;;;41.28;17.27;;;7.50;99.90;;;;;;5050059;28;20033;-72
2021/01/28 05:42:07;;;;;;;56.40;19.13;;;7.50;99.90;;;;;;5040738;28;20041;-72
2021/01/28 05:44:37;;;;;;;32.40;15.57;;;7.50;99.90;;;;;;5048147;28;20029;-72
2021/01/28 05:47:11;;;;;;;32.08;16.25;;;7.40;99.90;;;;;;5031760;28;20208;-72
2021/01/28 05:49:41;;;;;;;32.63;16.70;;;7.40;99.90;;;;;;5045838;28;20114;-72
2021/01/28 05:52:36;;;;;;;28.17;15.23;;;7.30;99.90;;;;;;5051021;28;20029;-72
2021/01/28 05:55:07;;;;;;;31.70;15.70;;;7.40;99.90;;;;;;5028752;28;20064;-72
2021/01/28 05:57:48;;;;;;;32.15;14.85;;;7.40;99.90;;;;;;5028637;28;20074;-72
2021/01/28 06:00:21;;;;;;;32.75;15.43;;;7.30;99.90;;;;;;5043394;28;20036;-72
2021/01/28 06:03:14;;;;;;;32.10;15.77;;;7.30;99.90;;;;;;5044729;28;20028;-73
2021/01/28 06:05:46;;;;;;;36.85;15.77;;;7.40;99.90;;;;;;5046446;28;20031;-72
2021/01/28 06:08:40;;;;;;;26.75;13.38;;;7.40;99.90;;;;;;5046558;28;20041;-72
2021/01/28 06:11:11;;;;;;;28.85;14.10;;;7.40;99.90;;;;;;5029220;28;20052;-73
2021/01/28 06:14:04;;;;;;;28.85;14.18;;;7.40;99.90;;;;;;5049614;28;20079;-72
2021/01/28 06:16:53;;;;;;;24.85;12.77;;;7.30;99.90;;;;;;5031410;28;20123;-72
2021/01/28 06:19:54;;;;;;;29.83;15.00;;;7.30;99.90;;;;;;5048313;28;20456;-72
2021/01/28 06:22:41;;;;;;;25.77;13.57;;;7.30;99.90;;;;;;5045496;28;20033;-72
2021/01/28 06:25:13;;;;;;;29.63;14.00;;;7.30;99.90;;;;;;5050343;28;20078;-73
2021/01/28 06:28:08;;;;;;;31.50;14.40;;;7.30;99.90;;;;;;5044652;28;20032;-72
2021/01/28 06:30:56;;;;;;;27.92;14.55;;;7.30;99.90;;;;;;5028383;28;20845;-72
2021/01/28 06:33:27;;;;;;;28.77;14.38;;;7.30;99.90;;;;;;5050099;28;20084;-72
2021/01/28 06:36:20;;;;;;;26.63;13.52;;;7.30;99.90;;;;;;5049846;28;20031;-72
2021/01/28 06:39:21;;;;;;;26.38;14.00;;;7.30;99.90;;;;;;5049150;28;20056;-72
2021/01/28 06:42:22;;;;;;;29.77;14.48;;;7.30;99.90;;;;;;5013778;28;20049;-72
2021/01/28 06:45:02;;;;;;;29.90;14.10;;;7.30;99.90;;;;;;5047985;28;20025;-72
2021/01/28 06:47:36;;;;;;;36.67;15.50;;;7.30;99.90;;;;;;5049936;28;20021;-72
2021/01/28 06:50:08;;;;;;;31.98;14.68;;;7.30;99.90;;;;;;5048311;28;20132;-72
2021/01/28 06:53:13;;;;;;;24.52;13.82;;;7.30;99.90;;;;;;5048051;28;20804;-72
2021/01/28 06:55:53;;;;;;;26.65;13.35;;;7.30;99.90;;;;;;5048467;28;20053;-72
2021/01/28 06:58:43;;;;;;;29.20;14.55;;;7.30;99.90;;;;;;5050976;28;20029;-72
2021/01/28 07:01:15;;;;;;;29.67;14.25;;;7.30;99.90;;;;;;5042045;28;20067;-72
2021/01/28 07:04:09;;;;;;;34.40;15.70;;;7.40;99.90;;;;;;5049050;28;20017;-72
2021/01/28 07:06:46;;;;;;;30.50;14.32;;;7.40;99.90;;;;;;5037897;28;20029;-72
2021/01/28 07:09:27;;;;;;;28.45;14.02;;;7.40;99.90;;;;;;5048903;28;20071;-72
2021/01/28 07:11:58;;;;;;;31.55;14.73;;;7.30;99.90;;;;;;5047351;28;20025;-72
2021/01/28 07:14:24;;;;;;;31.83;15.00;;;7.30;99.90;;;;;;5044777;28;20025;-72
2021/01/28 07:16:54;;;;;;;35.60;15.75;;;7.30;99.90;;;;;;5045969;28;20043;-73
2021/01/28 07:19:29;;;;;;;35.10;15.65;;;7.30;99.90;;;;;;5047211;28;20037;-72
2021/01/28 07:21:56;;;;;;;23.98;13.30;;;7.30;99.90;;;;;;5047585;28;20108;-72
2021/01/28 07:24:32;;;;;;;25.80;12.65;;;7.40;99.90;;;;;;5031981;28;20384;-72
2021/01/28 07:27:05;;;;;;;23.08;12.23;;;7.40;99.90;;;;;;5047225;28;20028;-72
2021/01/28 07:29:30;;;;;;;;;;;7.30;99.90;;;;;;5044496;28;20029;-72
2021/01/28 07:32:07;;;;;;;23.08;11.65;;;7.40;99.90;;;;;;5048731;28;19982;-72
2021/01/28 07:34:33;;;;;;;21.83;11.68;;;7.40;99.90;;;;;;5043808;28;20091;-72
2021/01/28 07:37:28;;;;;;;23.30;12.38;;;7.40;99.90;;;;;;5047004;28;20533;-72
2021/01/28 07:39:53;;;;;;;24.75;13.57;;;7.40;99.90;;;;;;5049784;28;20436;-72
2021/01/28 07:42:25;;;;;;;43.00;16.05;;;7.40;99.90;;;;;;5032789;28;20017;-73
2021/01/28 07:44:59;;;;;;;30.65;14.35;;;7.50;99.90;;;;;;5042141;28;20033;-72
2021/01/28 07:47:31;;;;;;;24.80;13.95;;;7.40;99.90;;;;;;5046152;28;20459;-72
2021/01/28 07:50:27;;;;;;;25.13;13.57;;;7.40;99.90;;;;;;5043304;28;20072;-73
2021/01/28 07:52:53;;;;;;;25.95;14.88;;;7.30;99.90;;;;;;5041826;28;20079;-72
2021/01/28 07:55:54;;;;;;;26.25;15.20;;;7.30;99.90;;;;;;5043421;28;20037;-73
2021/01/28 07:58:33;;;;;;;27.80;15.05;;;7.40;99.90;;;;;;4962778;28;20475;-73
2021/01/28 08:01:09;;;;;;;27.40;14.52;;;7.40;99.90;;;;;;5035425;28;20041;-73
2021/01/28 08:03:43;;;;;;;29.63;15.18;;;7.40;99.90;;;;;;5048303;28;20298;-73
2021/01/28 08:06:12;;;;;;;31.20;15.35;;;7.40;99.90;;;;;;5043720;28;20119;-73
2021/01/28 08:08:38;;;;;;;30.02;14.80;;;7.40;99.90;;;;;;5043870;28;20029;-73
2021/01/28 08:11:21;;;;;;;28.50;15.25;;;7.30;99.90;;;;;;5049011;28;20044;-73
2021/01/28 08:13:54;;;;;;;36.40;16.35;;;7.30;99.90;;;;;;5029864;28;20022;-73
2021/01/28 08:16:19;;;;;;;;;;;7.30;99.90;;;;;;5046368;28;20055;-73
2021/01/28 08:19:06;;;;;;;25.92;14.10;;;7.40;99.90;;;;;;5046199;28;20357;-73
2021/01/28 08:21:32;;;;;;;24.40;13.25;;;7.40;99.90;;;;;;5047396;28;20102;-71
2021/01/28 08:24:34;;;;;;;23.90;13.60;;;7.40;99.90;;;;;;5047394;28;20481;-71
2021/01/28 08:27:16;;;;;;;29.52;15.50;;;7.50;99.90;;;;;;5046200;28;20385;-71
2021/01/28 08:29:42;;;;;;;26.92;14.15;;;7.50;99.90;;;;;;5041555;28;20052;-72
2021/01/28 08:32:26;;;;;;;19.55;11.93;;;7.60;99.90;;;;;;5028207;28;20477;-72
2021/01/28 08:35:00;;;;;;;23.95;13.32;;;7.60;99.90;;;;;;5035838;28;20063;-71
2021/01/28 08:37:30;;;;;;;21.13;12.45;;;7.60;99.90;;;;;;5040139;28;20067;-72
2021/01/28 08:39:56;;;;;;;18.42;11.07;;;7.60;99.90;;;;;;5046130;28;20497;-71
2021/01/28 08:42:25;;;;;;;25.65;13.73;;;7.50;99.90;;;;;;5045101;28;20548;-72
2021/01/28 08:45:07;;;;;;;22.95;12.52;;;7.60;99.90;;;;;;5043389;28;20021;-72
2021/01/28 08:47:33;;;;;;;19.27;11.25;;;7.50;99.90;;;;;;5044850;28;20021;-71
2021/01/28 08:50:00;;;;;;;22.23;12.23;;;7.50;99.90;;;;;;5043396;28;20091;-72
2021/01/28 08:52:26;;;;;;;24.60;12.48;;;7.60;99.90;;;;;;5042125;28;20115;-72
2021/01/28 08:54:52;;;;;;;19.63;11.27;;;7.60;99.90;;;;;;5046683;28;20029;-72
2021/01/28 08:57:20;;;;;;;20.27;11.05;;;7.60;99.90;;;;;;5028013;28;20032;-73
2021/01/28 08:59:56;;;;;;;21.92;12.25;;;7.60;99.90;;;;;;5046819;28;20018;-72
2021/01/28 09:02:28;;;;;;;17.23;10.60;;;7.60;99.90;;;;;;5039174;28;20025;-72
2021/01/28 09:05:06;;;;;;;19.70;10.60;;;7.60;99.90;;;;;;5046570;28;20085;-71
2021/01/28 09:08:01;;;;;;;19.67;10.95;;;7.60;99.90;;;;;;5041188;28;20017;-71
2021/01/28 09:10:38;;;;;;;20.20;10.80;;;7.60;99.90;;;;;;5045457;28;20067;-72
2021/01/28 09:13:26;;;;;;;24.30;12.18;;;7.60;99.90;;;;;;5040660;28;20025;-72
2021/01/28 09:16:09;;;;;;;21.75;11.43;;;7.60;99.90;;;;;;5042127;28;20400;-71
2021/01/28 09:18:39;;;;;;;26.17;12.43;;;7.60;99.90;;;;;;5027416;28;20032;-72
2021/01/28 09:21:10;;;;;;;20.20;10.65;;;7.60;99.90;;;;;;5040791;28;20016;-71
2021/01/28 09:23:37;;;;;;;17.05;10.20;;;7.70;99.90;;;;;;5041934;28;20029;-72
2021/01/28 09:26:26;;;;;;;20.33;11.52;;;7.70;99.90;;;;;;5024390;28;20021;-72
2021/01/28 09:28:52;;;;;;;19.15;10.75;;;7.70;99.90;;;;;;5044967;28;20041;-72
2021/01/28 09:31:23;;;;;;;22.48;11.85;;;7.70;99.90;;;;;;5040921;28;20525;-72
2021/01/28 09:33:48;;;;;;;17.60;10.80;;;7.70;99.90;;;;;;5039314;28;20095;-72
2021/01/28 09:36:22;;;;;;;25.20;12.65;;;7.70;99.90;;;;;;5042763;28;20436;-71
2021/01/28 09:39:07;;;;;;;20.33;11.70;;;7.70;99.90;;;;;;5045346;28;20026;-71
2021/01/28 09:41:45;;;;;;;26.63;12.70;;;7.70;99.90;;;;;;5043413;28;20553;-72
2021/01/28 09:44:29;;;;;;;22.42;11.90;;;7.70;99.90;;;;;;5045930;28;20074;-72
2021/01/28 09:47:19;;;;;;;20.90;12.20;;;7.70;99.90;;;;;;5050464;28;20063;-72
2021/01/28 09:49:56;;;;;;;23.55;12.75;;;7.80;99.90;;;;;;5033850;28;20041;-73
2021/01/28 09:52:29;;;;;;;25.50;13.52;;;7.90;99.90;;;;;;5049078;28;20025;-73
2021/01/28 09:54:57;;;;;;;23.77;12.85;;;7.80;99.90;;;;;;5042489;28;20036;-72
2021/01/28 09:57:23;;;;;;;29.13;14.60;;;7.80;99.90;;;;;;5045603;28;20017;-72
2021/01/28 09:59:49;;;;;;;24.75;13.85;;;7.90;99.90;;;;;;5047951;28;20029;-72
2021/01/28 10:02:23;;;;;;;26.65;12.90;;;8.00;99.90;;;;;;5047849;28;20036;-72
2021/01/28 10:04:50;;;;;;;22.50;13.05;;;8.00;99.90;;;;;;5043238;28;20035;-73
2021/01/28 10:07:15;;;;;;;24.98;13.98;;;7.90;99.90;;;;;;5047247;28;20018;-72
2021/01/28 10:09:43;;;;;;;22.60;12.98;;;7.90;99.90;;;;;;5029237;28;20044;-75
2021/01/28 10:12:09;;;;;;;26.45;14.25;;;8.00;99.90;;;;;;5050138;28;20033;-72
2021/01/28 10:14:35;;;;;;;19.30;12.20;;;8.00;99.90;;;;;;5032857;28;20052;-73
2021/01/28 10:17:00;;;;;;;18.98;11.82;;;8.00;99.90;;;;;;5046840;28;20415;-72
2021/01/28 10:19:26;;;;;;;19.52;12.02;;;8.00;99.90;;;;;;5047344;28;20113;-73
2021/01/28 10:21:52;;;;;;;20.85;12.48;;;8.00;99.90;;;;;;5049228;28;20017;-73
2021/01/28 10:24:18;;;;;;;25.83;13.98;;;8.00;99.90;;;;;;5046963;28;20018;-73
2021/01/28 10:26:44;;;;;;;29.63;15.18;;;8.00;99.90;;;;;;5049990;28;20028;-72
2021/01/28 10:29:09;;;;;;;21.77;13.27;;;8.00;99.90;;;;;;5050460;28;20098;-73
2021/01/28 10:31:35;;;;;;;36.53;18.02;;;8.20;99.90;;;;;;5048140;28;20037;-73
2021/01/28 10:34:00;;;;;;;30.67;16.27;;;8.20;99.90;;;;;;5046533;28;20028;-72
2021/01/28 10:36:26;;;;;;;32.15;18.08;;;8.30;99.90;;;;;;5030711;28;20039;-73
2021/01/28 10:38:52;;;;;;;38.88;19.60;;;8.30;99.90;;;;;;5050088;28;20082;-72
2021/01/28 10:41:17;;;;;;;39.72;19.25;;;8.40;99.90;;;;;;5048239;28;20060;-73
2021/01/28 10:43:43;;;;;;;36.88;18.52;;;8.40;99.90;;;;;;5048680;28;20025;-73
2021/01/28 10:46:09;;;;;;;32.42;17.30;;;8.40;99.90;;;;;;5050885;28;20093;-72
2021/01/28 10:48:35;;;;;;;38.03;17.90;;;8.40;99.90;;;;;;5045822;28;20488;-72
2021/01/28 10:51:02;;;;;;;38.58;19.10;;;8.50;99.90;;;;;;5039617;28;20104;-73
2021/01/28 10:53:28;;;;;;;32.97;18.45;;;8.40;99.90;;;;;;5046408;28;20053;-73
2021/01/28 10:55:54;;;;;;;33.25;17.10;;;8.40;99.90;;;;;;5050071;28;20021;-73
2021/01/28 10:58:26;;;;;;;41.22;18.48;;;8.50;99.90;;;;;;5048989;28;20029;-73
2021/01/28 11:00:51;;;;;;;32.03;17.33;;;8.60;99.90;;;;;;5040997;28;20029;-73
2021/01/28 11:03:17;;;;;;;30.73;16.35;;;8.60;99.90;;;;;;5043688;28;20037;-72
2021/01/28 11:05:44;;;;;;;30.20;16.70;;;8.50;99.90;;;;;;5050359;28;20466;-73
2021/01/28 11:08:09;;;;;;;33.88;17.40;;;8.60;99.90;;;;;;5050902;28;20057;-72
2021/01/28 11:10:37;;;;;;;38.05;17.90;;;8.60;99.90;;;;;;5049209;28;20091;-72
2021/01/28 11:13:03;;;;;;;27.25;14.45;;;8.60;99.90;;;;;;5048851;28;20108;-72
2021/01/28 11:15:33;;;;;;;28.80;15.45;;;8.60;99.90;;;;;;5048282;28;20043;-73
2021/01/28 11:17:59;;;;;;;27.83;14.93;;;8.60;99.90;;;;;;5043044;28;20119;-73
2021/01/28 11:20:25;;;;;;;28.05;14.23;;;8.70;99.90;;;;;;5046574;28;20311;-73
2021/01/28 11:22:51;;;;;;;25.83;13.82;;;8.60;99.90;;;;;;5043228;28;20025;-72
2021/01/28 11:25:21;;;;;;;25.20;13.18;;;8.50;99.90;;;;;;5047421;28;20485;-73
2021/01/28 11:27:48;;;;;;;28.77;13.93;;;8.40;99.90;;;;;;5039083;28;20039;-73
2021/01/28 11:30:15;;;;;;;26.48;14.20;;;8.40;99.90;;;;;;5040912;28;20421;-73
2021/01/28 11:32:41;;;;;;;25.48;12.93;;;8.50;99.90;;;;;;5042424;28;20040;-72
2021/01/28 11:35:08;;;;;;;25.75;13.50;;;8.50;99.90;;;;;;5048174;28;20025;-73
2021/01/28 11:37:34;;;;;;;23.23;12.73;;;8.60;99.90;;;;;;5048473;28;20489;-73
2021/01/28 11:39:59;;;;;;;27.92;13.70;;;8.70;99.90;;;;;;5044086;28;20033;-73
2021/01/28 11:42:25;;;;;;;29.55;13.90;;;8.60;99.90;;;;;;5025602;28;20048;-72
2021/01/28 11:44:50;;;;;;;22.80;12.45;;;8.60;99.90;;;;;;5047188;28;20029;-72
2021/01/28 11:47:16;;;;;;;25.55;12.77;;;8.70;99.90;;;;;;5027332;28;20021;-72
2021/01/28 11:49:42;;;;;;;22.67;12.25;;;8.70;99.90;;;;;;5046472;28;20080;-72
2021/01/28 11:52:08;;;;;;;27.83;12.80;;;8.70;99.90;;;;;;5048511;28;20017;-72
2021/01/28 11:54:34;;;;;;;23.67;12.25;;;8.80;99.90;;;;;;5045509;28;20086;-73
2021/01/28 11:57:00;;;;;;;28.55;13.95;;;8.90;99.90;;;;;;5047420;28;20032;-72
2021/01/28 11:59:26;;;;;;;23.27;11.82;;;8.90;99.90;;;;;;5049681;28;20033;-73
2021/01/28 12:01:51;;;;;;;21.05;11.07;;;8.90;99.90;;;;;;5047589;28;20103;-73
2021/01/28 12:04:17;;;;;;;27.83;12.80;;;8.90;99.90;;;;;;5040749;28;20051;-73
2021/01/28 12:06:43;;;;;;;17.98;10.63;;;9.00;99.90;;;;;;5047147;28;20052;-73
2021/01/28 12:09:09;;;;;;;13.80;8.68;;;9.00;99.90;;;;;;5045916;28;20480;-73
2021/01/28 12:11:35;;;;;;;13.38;8.32;;;9.00;99.90;;;;;;5045767;28;20068;-73
2021/01/28 12:14:00;;;;;;;15.48;8.90;;;9.00;99.90;;;;;;5042845;28;20052;-73
2021/01/28 12:16:26;;;;;;;18.52;9.65;;;9.00;99.90;;;;;;5048874;28;20030;-73
2021/01/28 12:18:52;;;;;;;13.10;7.97;;;8.90;99.90;;;;;;5041956;28;20022;-73
2021/01/28 12:21:18;;;;;;;20.70;9.05;;;8.90;99.90;;;;;;5042849;28;20388;-73
2021/01/28 12:23:44;;;;;;;15.32;8.25;;;8.80;99.90;;;;;;5047924;28;20063;-73
2021/01/28 12:26:10;;;;;;;12.70;7.85;;;8.80;99.90;;;;;;5042331;28;20036;-73
2021/01/28 12:28:36;;;;;;;10.85;6.80;;;9.00;99.90;;;;;;5047000;28;20374;-73
2021/01/28 12:31:02;;;;;;;13.95;8.30;;;9.00;99.90;;;;;;5046635;28;20032;-73
2021/01/28 12:33:27;;;;;;;14.07;8.50;;;9.10;99.90;;;;;;5048101;28;20104;-74
2021/01/28 12:35:53;;;;;;;19.00;9.27;;;9.10;99.90;;;;;;5043535;28;20122;-73
2021/01/28 12:38:18;;;;;;;15.88;9.52;;;9.10;99.90;;;;;;5039375;28;20029;-73
2021/01/28 12:40:44;;;;;;;14.18;8.73;;;9.00;99.90;;;;;;5025878;28;20035;-73
2021/01/28 12:43:10;;;;;;;13.82;8.18;;;9.10;99.90;;;;;;5047046;28;20025;-73
2021/01/28 12:45:35;;;;;;;15.43;9.10;;;9.10;99.90;;;;;;5041014;28;20486;-74
2021/01/28 12:48:01;;;;;;;15.75;8.60;;;9.10;99.90;;;;;;5046251;28;20025;-74
2021/01/28 12:50:28;;;;;;;14.70;8.57;;;9.10;99.90;;;;;;5046970;28;20048;-73
2021/01/28 12:52:53;;;;;;;14.18;8.88;;;9.20;99.90;;;;;;5027303;28;20088;-74